Aérodrome :
LOGIN :

S'inscrire | Disclaimer

   EN    FR    IT 

 










Légende :    VFR   VFR Marginal   IFR   IFR Intensif   IFR Très Intensif
Visi : 
Plafond : 
>= 8 km
>= 3000ft
5 à 8 km
1000 à 3000 ft
1500m à 5 km
500 à 1000 ft
800 à 1500m
200 à 500 ft
< 800m
< 200 ft
Symboles :   Orages  Brouillard  Fortes neiges  Fortes précipitations  Vent > 20 kt
SIGMETs :   Divers  Orages  Givrage  Turbulence  Onde Orograph.  Cendres Volcan.







- Altitude de l'aérodrome : 174 ft
- Code IATA : RYG


ENRY - Moss , Rygge

DERNIER METAR :
  • 151650Z 18005KT 9999 -DZ FEW010 BKN060 12/11 Q1013

METARs EXPIRÉS :
  • 151620Z 19005KT 9999 -RA FEW010 BKN060 12/11 Q1013
  • 151550Z 17006KT 9999 -DZ FEW009 SCT011 BKN062 12/11 Q1012
  • 151520Z 19005KT 9999 -DZ BKN008 12/11 Q1012
  • 151450Z 20007KT 9999 -DZ BKN008 13/11 Q1012
  • 151420Z 18009KT 9999 BKN011 13/11 Q1012

TAF AMD TAF ENRY
Valide du 15 à 15h jusqu'au 16 à 12h UTC


151538Z 1515/1612 18008KT 9000 SCT010 BKN060
PROB30
TEMPO 1515/1523 4000 DZ BR BKN008
PROB40 1600/1606 0500 FG VV001
BECMG 1605/1607 02010KT
Pas de NOTAMs connus pour ce terrain.



MET'MAP, la Météo Aéronautique d'un coup d'oeil ! - Copyright ORBIFLY Décembre 2007 - Disclaimer

ORBIFLY MET'MAP TEAM :

Programmation & Développement : Alexandra Zaïnal
Conception & Développement : Baudouin d'Aumeries
Co-Programmation & Développement : Marc-Olivier Méhu
Soutien technique & logistique : Manuel Goepfert

Contact : metmap@orbifly.com




SOURCES & CREDITS :

   NOAA